sensor_id;sensor_type;location;lat;lon;timestamp;P1;durP1;ratioP1;P2;durP2;ratioP2
4857;SDS011;58975;51.978;8.472;2022-09-23T00:01:11;5.90;;;1.70;;
4857;SDS011;58975;51.978;8.472;2022-09-23T00:11:07;3.47;;;1.23;;
4857;SDS011;58975;51.978;8.472;2022-09-23T00:16:06;3.92;;;1.30;;
4857;SDS011;58975;51.978;8.472;2022-09-23T00:21:09;1.90;;;1.25;;
4857;SDS011;58975;51.978;8.472;2022-09-23T00:26:07;4.70;;;1.30;;
4857;SDS011;58975;51.978;8.472;2022-09-23T00:31:06;2.25;;;1.33;;
4857;SDS011;58975;51.978;8.472;2022-09-23T00:36:06;2.00;;;1.30;;
4857;SDS011;58975;51.978;8.472;2022-09-23T00:41:10;1.98;;;1.13;;
4857;SDS011;58975;51.978;8.472;2022-09-23T00:46:11;1.50;;;0.93;;
4857;SDS011;58975;51.978;8.472;2022-09-23T00:51:13;2.15;;;1.10;;
4857;SDS011;58975;51.978;8.472;2022-09-23T00:56:14;1.08;;;0.98;;
4857;SDS011;58975;51.978;8.472;2022-09-23T01:01:11;3.85;;;1.20;;
4857;SDS011;58975;51.978;8.472;2022-09-23T01:06:09;1.27;;;0.90;;
4857;SDS011;58975;51.978;8.472;2022-09-23T01:16:16;3.43;;;1.27;;
4857;SDS011;58975;51.978;8.472;2022-09-23T01:21:29;2.38;;;1.52;;
4857;SDS011;58975;51.978;8.472;2022-09-23T01:31:55;2.25;;;1.20;;
4857;SDS011;58975;51.978;8.472;2022-09-23T01:37:09;4.65;;;1.10;;
4857;SDS011;58975;51.978;8.472;2022-09-23T01:42:12;1.45;;;1.02;;
4857;SDS011;58975;51.978;8.472;2022-09-23T01:47:16;1.65;;;1.00;;
4857;SDS011;58975;51.978;8.472;2022-09-23T01:52:37;2.58;;;1.02;;
4857;SDS011;58975;51.978;8.472;2022-09-23T02:03:18;3.00;;;0.98;;
4857;SDS011;58975;51.978;8.472;2022-09-23T02:08:23;1.85;;;1.08;;
4857;SDS011;58975;51.978;8.472;2022-09-23T02:13:37;1.20;;;0.95;;
4857;SDS011;58975;51.978;8.472;2022-09-23T02:18:42;1.95;;;1.10;;
4857;SDS011;58975;51.978;8.472;2022-09-23T02:23:44;1.90;;;1.48;;
4857;SDS011;58975;51.978;8.472;2022-09-23T02:34:04;1.08;;;1.00;;
4857;SDS011;58975;51.978;8.472;2022-09-23T02:39:29;3.72;;;1.20;;
4857;SDS011;58975;51.978;8.472;2022-09-23T02:44:34;0.93;;;0.80;;
4857;SDS011;58975;51.978;8.472;2022-09-23T02:49:32;8.90;;;1.45;;
4857;SDS011;58975;51.978;8.472;2022-09-23T02:54:31;2.08;;;0.80;;
4857;SDS011;58975;51.978;8.472;2022-09-23T02:59:29;1.13;;;0.70;;
4857;SDS011;58975;51.978;8.472;2022-09-23T03:09:28;2.40;;;1.00;;
4857;SDS011;58975;51.978;8.472;2022-09-23T03:24:44;1.50;;;1.40;;
4857;SDS011;58975;51.978;8.472;2022-09-23T03:29:47;2.53;;;1.40;;
4857;SDS011;58975;51.978;8.472;2022-09-23T03:34:47;1.13;;;1.02;;
4857;SDS011;58975;51.978;8.472;2022-09-23T03:45:05;2.90;;;0.93;;
4857;SDS011;58975;51.978;8.472;2022-09-23T03:50:04;3.47;;;0.98;;
4857;SDS011;58975;51.978;8.472;2022-09-23T03:55:01;2.33;;;1.08;;
4857;SDS011;58975;51.978;8.472;2022-09-23T03:59:58;2.65;;;0.95;;
4857;SDS011;58975;51.978;8.472;2022-09-23T04:04:54;8.50;;;1.30;;
4857;SDS011;58975;51.978;8.472;2022-09-23T04:09:51;1.48;;;0.98;;
4857;SDS011;58975;51.978;8.472;2022-09-23T04:14:48;2.58;;;1.08;;
4857;SDS011;58975;51.978;8.472;2022-09-23T04:19:44;1.10;;;1.00;;
4857;SDS011;58975;51.978;8.472;2022-09-23T04:24:41;1.17;;;1.00;;
4857;SDS011;58975;51.978;8.472;2022-09-23T04:29:37;1.92;;;1.40;;
4857;SDS011;58975;51.978;8.472;2022-09-23T04:34:33;3.90;;;1.00;;
4857;SDS011;58975;51.978;8.472;2022-09-23T04:39:30;6.38;;;1.23;;
4857;SDS011;58975;51.978;8.472;2022-09-23T04:44:26;2.53;;;1.20;;
4857;SDS011;58975;51.978;8.472;2022-09-23T04:49:23;2.40;;;1.40;;
4857;SDS011;58975;51.978;8.472;2022-09-23T04:54:19;2.78;;;1.20;;
4857;SDS011;58975;51.978;8.472;2022-09-23T04:59:16;3.80;;;1.23;;
4857;SDS011;58975;51.978;8.472;2022-09-23T05:04:12;1.10;;;1.10;;
4857;SDS011;58975;51.978;8.472;2022-09-23T05:09:12;7.07;;;2.35;;
4857;SDS011;58975;51.978;8.472;2022-09-23T05:14:11;1.85;;;1.33;;
4857;SDS011;58975;51.978;8.472;2022-09-23T05:19:08;2.00;;;1.23;;
4857;SDS011;58975;51.978;8.472;2022-09-23T05:24:04;2.60;;;1.10;;
4857;SDS011;58975;51.978;8.472;2022-09-23T05:29:01;3.05;;;1.25;;
4857;SDS011;58975;51.978;8.472;2022-09-23T05:33:58;1.58;;;1.23;;
4857;SDS011;58975;51.978;8.472;2022-09-23T05:38:59;2.22;;;1.08;;
4857;SDS011;58975;51.978;8.472;2022-09-23T05:43:56;3.08;;;1.30;;
4857;SDS011;58975;51.978;8.472;2022-09-23T05:48:53;0.93;;;0.90;;
4857;SDS011;58975;51.978;8.472;2022-09-23T05:53:57;1.48;;;1.23;;
4857;SDS011;58975;51.978;8.472;2022-09-23T05:58:56;1.90;;;1.10;;
4857;SDS011;58975;51.978;8.472;2022-09-23T06:03:54;2.75;;;1.40;;
4857;SDS011;58975;51.978;8.472;2022-09-23T06:08:52;3.10;;;1.40;;
4857;SDS011;58975;51.978;8.472;2022-09-23T06:13:52;1.60;;;1.35;;
4857;SDS011;58975;51.978;8.472;2022-09-23T06:18:50;3.53;;;1.65;;
4857;SDS011;58975;51.978;8.472;2022-09-23T06:23:47;1.30;;;1.20;;
4857;SDS011;58975;51.978;8.472;2022-09-23T06:28:43;1.50;;;1.30;;
4857;SDS011;58975;51.978;8.472;2022-09-23T06:33:41;1.83;;;1.40;;
4857;SDS011;58975;51.978;8.472;2022-09-23T06:38:39;4.03;;;1.20;;
4857;SDS011;58975;51.978;8.472;2022-09-23T06:43:36;4.28;;;1.58;;
4857;SDS011;58975;51.978;8.472;2022-09-23T06:48:33;3.10;;;1.05;;
4857;SDS011;58975;51.978;8.472;2022-09-23T06:53:30;2.30;;;1.20;;
4857;SDS011;58975;51.978;8.472;2022-09-23T06:58:27;3.03;;;1.20;;
4857;SDS011;58975;51.978;8.472;2022-09-23T07:03:24;5.20;;;1.20;;
4857;SDS011;58975;51.978;8.472;2022-09-23T07:08:21;2.38;;;1.30;;
4857;SDS011;58975;51.978;8.472;2022-09-23T07:13:19;2.63;;;1.67;;
4857;SDS011;58975;51.978;8.472;2022-09-23T07:18:15;7.38;;;2.03;;
4857;SDS011;58975;51.978;8.472;2022-09-23T07:23:12;2.10;;;1.52;;
4857;SDS011;58975;51.978;8.472;2022-09-23T07:28:08;4.10;;;1.90;;
4857;SDS011;58975;51.978;8.472;2022-09-23T07:33:05;3.22;;;1.40;;
4857;SDS011;58975;51.978;8.472;2022-09-23T07:38:22;2.33;;;1.52;;
4857;SDS011;58975;51.978;8.472;2022-09-23T07:43:25;4.68;;;1.70;;
4857;SDS011;58975;51.978;8.472;2022-09-23T07:48:22;2.72;;;1.30;;
4857;SDS011;58975;51.978;8.472;2022-09-23T07:53:19;2.25;;;1.40;;
4857;SDS011;58975;51.978;8.472;2022-09-23T07:58:15;3.03;;;1.83;;
4857;SDS011;58975;51.978;8.472;2022-09-23T08:03:12;3.20;;;1.27;;
4857;SDS011;58975;51.978;8.472;2022-09-23T08:08:09;2.28;;;1.50;;
4857;SDS011;58975;51.978;8.472;2022-09-23T08:13:06;1.83;;;1.45;;
4857;SDS011;58975;51.978;8.472;2022-09-23T08:18:02;2.53;;;1.60;;
4857;SDS011;58975;51.978;8.472;2022-09-23T08:22:59;2.83;;;1.33;;
4857;SDS011;58975;51.978;8.472;2022-09-23T08:27:55;1.55;;;1.33;;
4857;SDS011;58975;51.978;8.472;2022-09-23T08:32:52;2.10;;;1.33;;
4857;SDS011;58975;51.978;8.472;2022-09-23T08:37:48;3.55;;;1.40;;
4857;SDS011;58975;51.978;8.472;2022-09-23T08:42:45;1.50;;;1.02;;
4857;SDS011;58975;51.978;8.472;2022-09-23T08:47:53;2.42;;;1.67;;
4857;SDS011;58975;51.978;8.472;2022-09-23T08:57:53;2.10;;;1.50;;
4857;SDS011;58975;51.978;8.472;2022-09-23T09:03:20;1.52;;;1.42;;
4857;SDS011;58975;51.978;8.472;2022-09-23T09:08:21;3.00;;;2.05;;
4857;SDS011;58975;51.978;8.472;2022-09-23T09:13:30;3.92;;;1.88;;
4857;SDS011;58975;51.978;8.472;2022-09-23T09:18:29;2.60;;;1.70;;
4857;SDS011;58975;51.978;8.472;2022-09-23T09:28:56;6.15;;;1.65;;
4857;SDS011;58975;51.978;8.472;2022-09-23T09:34:34;3.28;;;1.58;;
4857;SDS011;58975;51.978;8.472;2022-09-23T09:39:40;8.93;;;1.73;;
4857;SDS011;58975;51.978;8.472;2022-09-23T09:49:41;4.38;;;1.77;;
4857;SDS011;58975;51.978;8.472;2022-09-23T09:54:44;3.22;;;1.67;;
4857;SDS011;58975;51.978;8.472;2022-09-23T09:59:40;5.05;;;2.53;;
4857;SDS011;58975;51.978;8.472;2022-09-23T10:04:39;2.28;;;1.92;;
4857;SDS011;58975;51.978;8.472;2022-09-23T10:09:36;7.37;;;1.90;;
4857;SDS011;58975;51.978;8.472;2022-09-23T10:14:34;3.40;;;1.98;;
4857;SDS011;58975;51.978;8.472;2022-09-23T10:19:31;3.88;;;1.95;;
4857;SDS011;58975;51.978;8.472;2022-09-23T10:24:32;5.15;;;2.30;;
4857;SDS011;58975;51.978;8.472;2022-09-23T10:29:32;5.15;;;2.17;;
4857;SDS011;58975;51.978;8.472;2022-09-23T10:34:34;4.57;;;2.22;;
4857;SDS011;58975;51.978;8.472;2022-09-23T10:39:31;6.15;;;2.15;;
4857;SDS011;58975;51.978;8.472;2022-09-23T10:50:26;5.97;;;2.17;;
4857;SDS011;58975;51.978;8.472;2022-09-23T10:55:33;4.57;;;2.13;;
4857;SDS011;58975;51.978;8.472;2022-09-23T11:00:56;3.70;;;2.30;;
4857;SDS011;58975;51.978;8.472;2022-09-23T11:11:30;6.03;;;2.67;;
4857;SDS011;58975;51.978;8.472;2022-09-23T11:22:03;4.53;;;2.92;;
4857;SDS011;58975;51.978;8.472;2022-09-23T11:32:34;5.22;;;2.88;;
4857;SDS011;58975;51.978;8.472;2022-09-23T11:37:47;7.65;;;3.05;;
4857;SDS011;58975;51.978;8.472;2022-09-23T11:53:25;3.45;;;2.45;;
4857;SDS011;58975;51.978;8.472;2022-09-23T11:58:30;4.13;;;1.83;;
4857;SDS011;58975;51.978;8.472;2022-09-23T12:03:52;3.17;;;2.20;;
4857;SDS011;58975;51.978;8.472;2022-09-23T12:17:13;4.30;;;1.67;;
4857;SDS011;58975;51.978;8.472;2022-09-23T12:22:25;4.40;;;2.15;;
4857;SDS011;58975;51.978;8.472;2022-09-23T12:27:41;4.07;;;2.05;;
4857;SDS011;58975;51.978;8.472;2022-09-23T12:32:41;5.63;;;2.33;;
4857;SDS011;58975;51.978;8.472;2022-09-23T12:37:38;5.37;;;2.00;;
4857;SDS011;58975;51.978;8.472;2022-09-23T12:42:38;2.38;;;1.77;;
4857;SDS011;58975;51.978;8.472;2022-09-23T12:47:39;2.40;;;1.98;;
4857;SDS011;58975;51.978;8.472;2022-09-23T12:52:35;3.70;;;1.70;;
4857;SDS011;58975;51.978;8.472;2022-09-23T13:02:33;4.85;;;1.92;;
4857;SDS011;58975;51.978;8.472;2022-09-23T13:07:32;2.40;;;1.33;;
4857;SDS011;58975;51.978;8.472;2022-09-23T13:12:30;1.50;;;1.20;;
4857;SDS011;58975;51.978;8.472;2022-09-23T13:17:35;5.70;;;1.75;;
4857;SDS011;58975;51.978;8.472;2022-09-23T13:22:41;4.65;;;1.67;;
4857;SDS011;58975;51.978;8.472;2022-09-23T13:28:02;2.05;;;1.30;;
4857;SDS011;58975;51.978;8.472;2022-09-23T13:33:15;1.92;;;1.42;;
4857;SDS011;58975;51.978;8.472;2022-09-23T13:38:21;1.70;;;1.33;;
4857;SDS011;58975;51.978;8.472;2022-09-23T13:43:22;1.60;;;1.27;;
4857;SDS011;58975;51.978;8.472;2022-09-23T13:48:23;2.42;;;1.30;;
4857;SDS011;58975;51.978;8.472;2022-09-23T13:53:23;5.78;;;2.03;;
4857;SDS011;58975;51.978;8.472;2022-09-23T13:58:23;3.80;;;2.15;;
4857;SDS011;58975;51.978;8.472;2022-09-23T14:03:23;4.15;;;2.40;;
4857;SDS011;58975;51.978;8.472;2022-09-23T14:08:27;4.72;;;1.45;;
4857;SDS011;58975;51.978;8.472;2022-09-23T14:13:25;3.53;;;1.40;;
4857;SDS011;58975;51.978;8.472;2022-09-23T14:18:27;2.97;;;0.95;;
4857;SDS011;58975;51.978;8.472;2022-09-23T14:23:28;2.33;;;0.80;;
4857;SDS011;58975;51.978;8.472;2022-09-23T14:28:25;2.45;;;1.20;;
4857;SDS011;58975;51.978;8.472;2022-09-23T14:33:28;1.13;;;0.90;;
4857;SDS011;58975;51.978;8.472;2022-09-23T14:38:27;2.78;;;1.45;;
4857;SDS011;58975;51.978;8.472;2022-09-23T14:43:46;2.13;;;1.02;;
4857;SDS011;58975;51.978;8.472;2022-09-23T14:48:53;1.73;;;1.15;;
4857;SDS011;58975;51.978;8.472;2022-09-23T14:53:51;2.03;;;0.80;;
4857;SDS011;58975;51.978;8.472;2022-09-23T14:58:54;3.03;;;1.05;;
4857;SDS011;58975;51.978;8.472;2022-09-23T15:03:53;3.10;;;1.15;;
4857;SDS011;58975;51.978;8.472;2022-09-23T15:08:51;2.22;;;1.10;;
4857;SDS011;58975;51.978;8.472;2022-09-23T15:13:49;1.30;;;1.17;;
4857;SDS011;58975;51.978;8.472;2022-09-23T15:18:51;1.40;;;0.98;;
4857;SDS011;58975;51.978;8.472;2022-09-23T15:23:51;3.53;;;0.90;;
4857;SDS011;58975;51.978;8.472;2022-09-23T15:28:50;1.15;;;0.90;;
4857;SDS011;58975;51.978;8.472;2022-09-23T15:33:49;3.83;;;1.20;;
4857;SDS011;58975;51.978;8.472;2022-09-23T15:38:46;1.90;;;0.93;;
4857;SDS011;58975;51.978;8.472;2022-09-23T15:43:43;1.48;;;0.90;;
4857;SDS011;58975;51.978;8.472;2022-09-23T15:48:40;1.83;;;0.97;;
4857;SDS011;58975;51.978;8.472;2022-09-23T15:53:39;3.00;;;1.15;;
4857;SDS011;58975;51.978;8.472;2022-09-23T15:58:35;2.22;;;0.90;;
4857;SDS011;58975;51.978;8.472;2022-09-23T16:03:31;1.98;;;0.95;;
4857;SDS011;58975;51.978;8.472;2022-09-23T16:08:28;1.00;;;0.80;;
4857;SDS011;58975;51.978;8.472;2022-09-23T16:13:27;2.92;;;0.60;;
4857;SDS011;58975;51.978;8.472;2022-09-23T16:18:24;1.50;;;1.05;;
4857;SDS011;58975;51.978;8.472;2022-09-23T16:23:24;1.67;;;1.00;;
4857;SDS011;58975;51.978;8.472;2022-09-23T16:28:30;0.77;;;0.70;;
4857;SDS011;58975;51.978;8.472;2022-09-23T16:33:26;1.77;;;0.85;;
4857;SDS011;58975;51.978;8.472;2022-09-23T16:38:23;2.50;;;1.00;;
4857;SDS011;58975;51.978;8.472;2022-09-23T16:43:19;0.85;;;0.70;;
4857;SDS011;58975;51.978;8.472;2022-09-23T16:48:17;1.25;;;0.63;;
4857;SDS011;58975;51.978;8.472;2022-09-23T16:53:14;0.73;;;0.60;;
4857;SDS011;58975;51.978;8.472;2022-09-23T16:58:12;0.57;;;0.57;;
4857;SDS011;58975;51.978;8.472;2022-09-23T17:03:09;3.45;;;0.70;;
4857;SDS011;58975;51.978;8.472;2022-09-23T17:08:26;0.88;;;0.80;;
4857;SDS011;58975;51.978;8.472;2022-09-23T17:13:24;2.58;;;0.80;;
4857;SDS011;58975;51.978;8.472;2022-09-23T17:18:21;4.88;;;1.58;;
4857;SDS011;58975;51.978;8.472;2022-09-23T17:23:18;2.03;;;1.48;;
4857;SDS011;58975;51.978;8.472;2022-09-23T17:28:14;3.10;;;1.60;;
4857;SDS011;58975;51.978;8.472;2022-09-23T17:33:11;6.28;;;1.60;;
4857;SDS011;58975;51.978;8.472;2022-09-23T17:38:07;2.70;;;1.42;;
4857;SDS011;58975;51.978;8.472;2022-09-23T17:43:03;7.20;;;1.73;;
4857;SDS011;58975;51.978;8.472;2022-09-23T17:48:00;6.95;;;1.73;;
4857;SDS011;58975;51.978;8.472;2022-09-23T17:52:57;4.28;;;1.65;;
4857;SDS011;58975;51.978;8.472;2022-09-23T17:57:55;3.15;;;1.50;;
4857;SDS011;58975;51.978;8.472;2022-09-23T18:02:51;2.97;;;1.60;;
4857;SDS011;58975;51.978;8.472;2022-09-23T18:07:47;7.35;;;2.22;;
4857;SDS011;58975;51.978;8.472;2022-09-23T18:12:44;5.57;;;1.55;;
4857;SDS011;58975;51.978;8.472;2022-09-23T18:17:40;4.68;;;1.83;;
4857;SDS011;58975;51.978;8.472;2022-09-23T18:22:36;3.15;;;1.48;;
4857;SDS011;58975;51.978;8.472;2022-09-23T18:27:33;3.00;;;1.55;;
4857;SDS011;58975;51.978;8.472;2022-09-23T18:32:29;7.20;;;1.77;;
4857;SDS011;58975;51.978;8.472;2022-09-23T18:37:27;1.50;;;1.40;;
4857;SDS011;58975;51.978;8.472;2022-09-23T18:42:23;5.32;;;1.75;;
4857;SDS011;58975;51.978;8.472;2022-09-23T18:47:22;7.68;;;1.92;;
4857;SDS011;58975;51.978;8.472;2022-09-23T18:52:37;3.40;;;2.30;;
4857;SDS011;58975;51.978;8.472;2022-09-23T18:57:33;3.67;;;2.10;;
4857;SDS011;58975;51.978;8.472;2022-09-23T19:02:29;3.28;;;2.13;;
4857;SDS011;58975;51.978;8.472;2022-09-23T19:07:27;4.60;;;1.90;;
4857;SDS011;58975;51.978;8.472;2022-09-23T19:12:24;5.72;;;2.20;;
4857;SDS011;58975;51.978;8.472;2022-09-23T19:17:20;4.72;;;2.05;;
4857;SDS011;58975;51.978;8.472;2022-09-23T19:22:16;4.65;;;2.20;;
4857;SDS011;58975;51.978;8.472;2022-09-23T19:27:14;7.15;;;2.55;;
4857;SDS011;58975;51.978;8.472;2022-09-23T19:32:10;5.78;;;2.95;;
4857;SDS011;58975;51.978;8.472;2022-09-23T19:37:07;6.35;;;2.70;;
4857;SDS011;58975;51.978;8.472;2022-09-23T19:42:04;5.57;;;2.80;;
4857;SDS011;58975;51.978;8.472;2022-09-23T19:47:00;3.80;;;2.67;;
4857;SDS011;58975;51.978;8.472;2022-09-23T19:51:57;5.38;;;2.95;;
4857;SDS011;58975;51.978;8.472;2022-09-23T19:56:53;3.92;;;2.53;;
4857;SDS011;58975;51.978;8.472;2022-09-23T20:01:50;4.53;;;2.47;;
4857;SDS011;58975;51.978;8.472;2022-09-23T20:06:46;8.65;;;3.28;;
4857;SDS011;58975;51.978;8.472;2022-09-23T20:11:44;3.75;;;2.20;;
4857;SDS011;58975;51.978;8.472;2022-09-23T20:16:41;7.40;;;4.00;;
4857;SDS011;58975;51.978;8.472;2022-09-23T20:21:37;5.13;;;3.00;;
4857;SDS011;58975;51.978;8.472;2022-09-23T20:26:34;4.30;;;3.10;;
4857;SDS011;58975;51.978;8.472;2022-09-23T20:31:49;6.85;;;4.18;;
4857;SDS011;58975;51.978;8.472;2022-09-23T20:36:45;7.20;;;4.47;;
4857;SDS011;58975;51.978;8.472;2022-09-23T20:41:41;5.38;;;3.47;;
4857;SDS011;58975;51.978;8.472;2022-09-23T20:46:38;6.53;;;3.90;;
4857;SDS011;58975;51.978;8.472;2022-09-23T20:51:43;5.95;;;4.00;;
4857;SDS011;58975;51.978;8.472;2022-09-23T20:56:39;6.93;;;4.50;;
4857;SDS011;58975;51.978;8.472;2022-09-23T21:01:36;8.73;;;5.15;;
4857;SDS011;58975;51.978;8.472;2022-09-23T21:06:32;7.20;;;4.75;;
4857;SDS011;58975;51.978;8.472;2022-09-23T21:11:30;8.77;;;4.67;;
4857;SDS011;58975;51.978;8.472;2022-09-23T21:16:27;6.90;;;4.50;;
4857;SDS011;58975;51.978;8.472;2022-09-23T21:21:24;5.53;;;4.20;;
4857;SDS011;58975;51.978;8.472;2022-09-23T21:26:21;7.05;;;4.78;;
4857;SDS011;58975;51.978;8.472;2022-09-23T21:31:20;7.35;;;4.88;;
4857;SDS011;58975;51.978;8.472;2022-09-23T21:36:19;6.55;;;4.90;;
4857;SDS011;58975;51.978;8.472;2022-09-23T21:41:15;4.82;;;4.13;;
4857;SDS011;58975;51.978;8.472;2022-09-23T21:46:13;8.70;;;4.43;;
4857;SDS011;58975;51.978;8.472;2022-09-23T21:51:15;8.32;;;4.82;;
4857;SDS011;58975;51.978;8.472;2022-09-23T21:56:18;6.47;;;4.40;;
4857;SDS011;58975;51.978;8.472;2022-09-23T22:01:22;7.87;;;5.00;;
4857;SDS011;58975;51.978;8.472;2022-09-23T22:06:26;13.55;;;6.82;;
4857;SDS011;58975;51.978;8.472;2022-09-23T22:11:23;12.60;;;6.70;;
4857;SDS011;58975;51.978;8.472;2022-09-23T22:16:40;11.40;;;6.78;;
4857;SDS011;58975;51.978;8.472;2022-09-23T22:21:37;18.33;;;8.48;;
4857;SDS011;58975;51.978;8.472;2022-09-23T22:26:36;20.23;;;10.23;;
4857;SDS011;58975;51.978;8.472;2022-09-23T22:31:33;19.40;;;8.55;;
4857;SDS011;58975;51.978;8.472;2022-09-23T22:36:49;16.70;;;8.38;;
4857;SDS011;58975;51.978;8.472;2022-09-23T22:41:45;13.63;;;6.15;;
4857;SDS011;58975;51.978;8.472;2022-09-23T22:46:43;11.17;;;6.27;;
4857;SDS011;58975;51.978;8.472;2022-09-23T22:51:41;8.33;;;5.73;;
4857;SDS011;58975;51.978;8.472;2022-09-23T22:56:37;10.32;;;6.18;;
4857;SDS011;58975;51.978;8.472;2022-09-23T23:01:34;9.38;;;6.70;;
4857;SDS011;58975;51.978;8.472;2022-09-23T23:06:31;9.77;;;5.80;;
4857;SDS011;58975;51.978;8.472;2022-09-23T23:11:31;10.00;;;6.07;;
4857;SDS011;58975;51.978;8.472;2022-09-23T23:16:28;14.10;;;6.35;;
4857;SDS011;58975;51.978;8.472;2022-09-23T23:21:28;13.13;;;6.00;;
4857;SDS011;58975;51.978;8.472;2022-09-23T23:26:26;10.75;;;6.22;;
4857;SDS011;58975;51.978;8.472;2022-09-23T23:31:24;8.65;;;6.18;;
4857;SDS011;58975;51.978;8.472;2022-09-23T23:36:22;11.38;;;6.88;;
4857;SDS011;58975;51.978;8.472;2022-09-23T23:41:20;9.52;;;6.57;;
4857;SDS011;58975;51.978;8.472;2022-09-23T23:46:17;12.40;;;6.53;;
4857;SDS011;58975;51.978;8.472;2022-09-23T23:51:14;7.43;;;5.68;;
4857;SDS011;58975;51.978;8.472;2022-09-23T23:56:12;6.53;;;5.32;;
